Time,TemperatureF,DewpointF,PressureIn,WindDirection,WindDirectionDegrees,WindSpeedMPH,WindSpeedGustMPH,Humidity,HourlyPrecipIn,Conditions,Clouds,dailyrainin,SoftwareType,DateUTC
2013-01-13 00:02:00,0.0,-4.0,30.49,NE,56,0.0,-999.0,83,-99.99,,,-99.99,,2013-01-13 07:02:00,
2013-01-13 00:12:00,0.0,-4.0,30.49,NE,56,0.0,-999.0,83,-99.99,,,-99.99,,2013-01-13 07:12:00,
2013-01-13 00:22:00,0.0,-4.0,30.49,NE,56,0.0,-999.0,83,-99.99,,,-99.99,,2013-01-13 07:22:00,
2013-01-13 00:32:00,0.0,-4.0,30.49,NE,56,0.0,-999.0,83,-99.99,,,-99.99,,2013-01-13 07:32:00,
2013-01-13 00:42:00,0.0,-4.0,30.49,NE,56,0.0,-999.0,83,-99.99,,,-99.99,,2013-01-13 07:42:00,
2013-01-13 00:52:00,-1.0,-5.0,30.49,NE,56,0.0,-999.0,83,-99.99,,,-99.99,,2013-01-13 07:52:00,
2013-01-13 01:01:00,-1.0,-5.0,30.50,NE,56,0.0,-999.0,83,-99.99,,,-99.99,,2013-01-13 08:01:00,
2013-01-13 01:11:00,-1.0,-5.0,30.50,NE,56,0.0,-999.0,83,-99.99,,,-99.99,,2013-01-13 08:11:00,
2013-01-13 01:22:00,-1.0,-5.0,30.50,NE,56,0.0,-999.0,83,-99.99,,,-99.99,,2013-01-13 08:22:00,
2013-01-13 01:32:00,-1.0,-5.0,30.50,NE,56,0.0,-999.0,83,-99.99,,,-99.99,,2013-01-13 08:32:00,
2013-01-13 01:42:00,-1.0,-5.0,30.50,NE,56,0.0,-999.0,83,-99.99,,,-99.99,,2013-01-13 08:42:00,
2013-01-13 01:52:00,-1.0,-5.0,30.50,NE,56,0.0,-999.0,83,-99.99,,,-99.99,,2013-01-13 08:52:00,
2013-01-13 02:02:00,0.0,-4.0,30.51,NE,55,0.0,-999.0,83,-99.99,,,-99.99,,2013-01-13 09:02:00,
2013-01-13 02:11:00,-1.0,-5.0,30.51,NE,55,0.0,-999.0,83,-99.99,,,-99.99,,2013-01-13 09:11:00,
2013-01-13 02:22:00,-1.0,-5.0,30.51,NE,55,0.0,-999.0,83,-99.99,,,-99.99,,2013-01-13 09:22:00,
2013-01-13 02:32:00,0.0,-4.0,30.51,NE,56,0.0,-999.0,83,-99.99,,,-99.99,,2013-01-13 09:32:00,
2013-01-13 02:42:00,0.0,-4.0,30.51,NE,56,0.0,-999.0,83,-99.99,,,-99.99,,2013-01-13 09:42:00,
2013-01-13 02:52:00,-1.0,-5.0,30.51,NE,56,0.0,-999.0,83,-99.99,,,-99.99,,2013-01-13 09:52:00,
2013-01-13 03:02:00,-1.0,-5.0,30.52,NE,56,0.0,-999.0,83,-99.99,,,-99.99,,2013-01-13 10:02:00,
2013-01-13 03:11:00,-1.0,-5.0,30.52,NE,56,0.0,-999.0,83,-99.99,,,-99.99,,2013-01-13 10:11:00,
2013-01-13 03:22:00,0.0,-4.0,30.51,NE,56,0.0,-999.0,83,-99.99,,,-99.99,,2013-01-13 10:22:00,
2013-01-13 03:32:00,0.0,-4.0,30.51,NE,56,0.0,-999.0,83,-99.99,,,-99.99,,2013-01-13 10:32:00,
2013-01-13 03:42:00,0.0,-4.0,30.51,NE,56,0.0,-999.0,83,-99.99,,,-99.99,,2013-01-13 10:42:00,
2013-01-13 03:52:00,-1.0,-5.0,30.51,NE,56,0.0,-999.0,83,-99.99,,,-99.99,,2013-01-13 10:52:00,
2013-01-13 04:02:00,-1.0,-5.0,30.51,NE,56,0.0,-999.0,83,-99.99,,,-99.99,,2013-01-13 11:02:00,
2013-01-13 04:11:00,-1.0,-5.0,30.51,NE,56,0.0,-999.0,83,-99.99,,,-99.99,,2013-01-13 11:11:00,
2013-01-13 04:22:00,-1.0,-5.0,30.50,NE,56,0.0,-999.0,83,-99.99,,,-99.99,,2013-01-13 11:22:00,
2013-01-13 04:32:00,-1.0,-5.0,30.50,NE,56,0.0,-999.0,83,-99.99,,,-99.99,,2013-01-13 11:32:00,
2013-01-13 04:42:00,-1.0,-5.0,30.50,NE,56,0.0,-999.0,83,-99.99,,,-99.99,,2013-01-13 11:42:00,
2013-01-13 04:52:00,-2.0,-6.0,30.49,NE,56,0.0,-999.0,83,-99.99,,,-99.99,,2013-01-13 11:52:00,
2013-01-13 05:02:00,-3.0,-7.0,30.50,NE,56,0.0,-999.0,82,-99.99,,,-99.99,,2013-01-13 12:02:00,
2013-01-13 05:12:00,-3.0,-7.0,30.50,NE,56,0.0,-999.0,82,-99.99,,,-99.99,,2013-01-13 12:12:00,
2013-01-13 05:22:00,-3.0,-7.0,30.50,NE,56,0.0,-999.0,83,-99.99,,,-99.99,,2013-01-13 12:22:00,
2013-01-13 05:32:00,-2.0,-6.0,30.50,NE,56,0.0,-999.0,83,-99.99,,,-99.99,,2013-01-13 12:32:00,
2013-01-13 05:42:00,-2.0,-6.0,30.50,NE,56,0.0,-999.0,83,-99.99,,,-99.99,,2013-01-13 12:42:00,
2013-01-13 05:53:00,-2.0,-6.0,30.50,NE,56,0.0,-999.0,83,-99.99,,,-99.99,,2013-01-13 12:53:00,
2013-01-13 06:02:00,-2.0,-6.0,30.51,NE,56,0.0,-999.0,83,-99.99,,,-99.99,,2013-01-13 13:02:00,
2013-01-13 06:12:00,-2.0,-6.0,30.51,NE,56,0.0,-999.0,83,-99.99,,,-99.99,,2013-01-13 13:12:00,
2013-01-13 06:22:00,-2.0,-6.0,30.51,NE,56,0.0,-999.0,83,-99.99,,,-99.99,,2013-01-13 13:22:00,
2013-01-13 06:32:00,-3.0,-7.0,30.51,NE,56,0.0,-999.0,83,-99.99,,,-99.99,,2013-01-13 13:32:00,
2013-01-13 06:42:00,-3.0,-7.0,30.51,NE,56,0.0,-999.0,83,-99.99,,,-99.99,,2013-01-13 13:42:00,
2013-01-13 06:53:00,-3.0,-7.0,30.52,NE,56,0.0,-999.0,83,-99.99,,,-99.99,,2013-01-13 13:53:00,
2013-01-13 07:02:00,-3.0,-7.0,30.53,NE,56,0.0,-999.0,83,-99.99,,,-99.99,,2013-01-13 14:02:00,
2013-01-13 07:12:00,-3.0,-7.0,30.53,NE,56,0.0,-999.0,83,-99.99,,,-99.99,,2013-01-13 14:12:00,
2013-01-13 07:22:00,-4.0,-8.0,30.53,NE,54,0.0,-999.0,81,-99.99,,,-99.99,,2013-01-13 14:22:00,
2013-01-13 07:32:00,-6.0,-10.0,30.54,NE,53,0.0,-999.0,82,-99.99,,,-99.99,,2013-01-13 14:32:00,
2013-01-13 07:42:00,-6.0,-10.0,30.54,NE,53,0.0,-999.0,82,-99.99,,,-99.99,,2013-01-13 14:42:00,
2013-01-13 07:53:00,-6.0,-10.0,30.54,NE,47,1.0,-999.0,82,-99.99,,,-99.99,,2013-01-13 14:53:00,
2013-01-13 08:02:00,-6.0,-10.0,30.55,NE,47,0.0,-999.0,82,-99.99,,,-99.99,,2013-01-13 15:02:00,
2013-01-13 08:12:00,-6.0,-10.0,30.55,NE,47,0.0,-999.0,82,-99.99,,,-99.99,,2013-01-13 15:12:00,
2013-01-13 08:22:00,-6.0,-10.0,30.55,NE,47,0.0,-999.0,82,-99.99,,,-99.99,,2013-01-13 15:22:00,
2013-01-13 08:33:00,-6.0,-10.0,30.56,NE,47,0.0,-999.0,82,-99.99,,,-99.99,,2013-01-13 15:33:00,
2013-01-13 08:42:00,-6.0,-10.0,30.56,NE,47,0.0,-999.0,82,-99.99,,,-99.99,,2013-01-13 15:42:00,
2013-01-13 08:52:00,-5.0,-9.0,30.56,NE,47,0.0,-999.0,82,-99.99,,,-99.99,,2013-01-13 15:52:00,
2013-01-13 09:02:00,-5.0,-9.0,30.57,NE,38,0.0,-999.0,82,-99.99,,,-99.99,,2013-01-13 16:02:00,
2013-01-13 09:22:00,-5.0,-9.0,30.57,NNE,32,2.0,-999.0,82,-99.99,,,-99.99,,2013-01-13 16:22:00,
2013-01-13 09:33:00,-4.0,-8.0,30.57,NNE,26,1.0,-999.0,82,-99.99,,,-99.99,,2013-01-13 16:33:00,
2013-01-13 09:42:00,-4.0,-8.0,30.57,NNE,26,1.0,-999.0,82,-99.99,,,-99.99,,2013-01-13 16:42:00,
2013-01-13 09:53:00,-4.0,-8.0,30.57,NNE,26,1.0,-999.0,82,-99.99,,,-99.99,,2013-01-13 16:53:00,
2013-01-13 10:02:00,-2.0,-6.0,30.57,NNE,24,0.0,-999.0,83,-99.99,,,-99.99,,2013-01-13 17:02:00,
2013-01-13 10:12:00,-2.0,-6.0,30.57,NNE,24,0.0,-999.0,83,-99.99,,,-99.99,,2013-01-13 17:12:00,
2013-01-13 10:22:00,0.0,-4.0,30.57,NNE,24,0.0,-999.0,83,-99.99,,,-99.99,,2013-01-13 17:22:00,
2013-01-13 10:33:00,4.0,0.0,30.57,NNE,24,0.0,-999.0,82,-99.99,,,-99.99,,2013-01-13 17:33:00,
2013-01-13 10:42:00,4.0,0.0,30.57,NNE,24,0.0,-999.0,82,-99.99,,,-99.99,,2013-01-13 17:42:00,
2013-01-13 10:53:00,5.0,0.0,30.56,West,273,1.0,-999.0,79,-99.99,,,-99.99,,2013-01-13 17:53:00,
2013-01-13 11:02:00,4.0,-2.0,30.56,West,267,1.0,-999.0,77,-99.99,,,-99.99,,2013-01-13 18:02:00,
2013-01-13 11:12:00,4.0,-2.0,30.56,West,267,1.0,-999.0,77,-99.99,,,-99.99,,2013-01-13 18:12:00,
2013-01-13 11:22:00,2.0,-3.0,30.55,WSW,257,2.0,-999.0,78,-99.99,,,-99.99,,2013-01-13 18:22:00,
2013-01-13 11:32:00,2.0,-3.0,30.55,WSW,257,2.0,-999.0,78,-99.99,,,-99.99,,2013-01-13 18:32:00,
2013-01-13 11:42:00,2.0,-3.0,30.55,WSW,257,2.0,-999.0,78,-99.99,,,-99.99,,2013-01-13 18:42:00,
2013-01-13 11:52:00,2.0,-3.0,30.54,WSW,257,0.0,-999.0,78,-99.99,,,-99.99,,2013-01-13 18:52:00,
2013-01-13 12:02:00,2.0,-3.0,30.54,WSW,257,1.0,-999.0,78,-99.99,,,-99.99,,2013-01-13 19:02:00,
2013-01-13 12:12:00,2.0,-3.0,30.54,WSW,257,1.0,-999.0,78,-99.99,,,-99.99,,2013-01-13 19:12:00,
2013-01-13 12:22:00,2.0,-3.0,30.53,WSW,257,0.0,-999.0,78,-99.99,,,-99.99,,2013-01-13 19:22:00,
2013-01-13 12:33:00,2.0,-3.0,30.53,WSW,257,1.0,-999.0,80,-99.99,,,-99.99,,2013-01-13 19:33:00,
2013-01-13 12:42:00,2.0,-3.0,30.53,WSW,257,1.0,-999.0,80,-99.99,,,-99.99,,2013-01-13 19:42:00,
2013-01-13 12:52:00,4.0,-1.0,30.52,WSW,257,0.0,-999.0,79,-99.99,,,-99.99,,2013-01-13 19:52:00,
2013-01-13 13:02:00,5.0,0.0,30.52,WSW,257,1.0,-999.0,79,-99.99,,,-99.99,,2013-01-13 20:02:00,
2013-01-13 13:12:00,5.0,0.0,30.52,WSW,257,1.0,-999.0,79,-99.99,,,-99.99,,2013-01-13 20:12:00,
2013-01-13 13:22:00,5.0,0.0,30.52,WSW,246,2.0,-999.0,78,-99.99,,,-99.99,,2013-01-13 20:22:00,
2013-01-13 13:32:00,5.0,0.0,30.52,SSW,208,0.0,-999.0,78,-99.99,,,-99.99,,2013-01-13 20:32:00,
2013-01-13 13:43:00,5.0,0.0,30.52,SSW,208,0.0,-999.0,78,-99.99,,,-99.99,,2013-01-13 20:43:00,
2013-01-13 13:52:00,5.0,0.0,30.51,SSW,208,1.0,-999.0,78,-99.99,,,-99.99,,2013-01-13 20:52:00,
2013-01-13 14:02:00,5.0,0.0,30.52,SSW,207,1.0,-999.0,78,-99.99,,,-99.99,,2013-01-13 21:02:00,
2013-01-13 14:12:00,5.0,0.0,30.52,SSW,207,1.0,-999.0,78,-99.99,,,-99.99,,2013-01-13 21:12:00,
2013-01-13 14:22:00,6.0,1.0,30.52,SSW,207,2.0,-999.0,78,-99.99,,,-99.99,,2013-01-13 21:22:00,
2013-01-13 14:32:00,6.0,1.0,30.52,SSW,207,1.0,-999.0,78,-99.99,,,-99.99,,2013-01-13 21:32:00,
2013-01-13 14:42:00,6.0,1.0,30.52,SSW,207,1.0,-999.0,78,-99.99,,,-99.99,,2013-01-13 21:42:00,
2013-01-13 14:52:00,6.0,0.0,30.53,SSW,207,0.0,-999.0,77,-99.99,,,-99.99,,2013-01-13 21:52:00,
2013-01-13 15:02:00,7.0,1.0,30.53,SSW,207,0.0,-999.0,77,-99.99,,,-99.99,,2013-01-13 22:02:00,
2013-01-13 15:12:00,7.0,1.0,30.53,SSW,207,0.0,-999.0,77,-99.99,,,-99.99,,2013-01-13 22:12:00,
2013-01-13 15:22:00,7.0,1.0,30.53,SSW,207,0.0,-999.0,77,-99.99,,,-99.99,,2013-01-13 22:22:00,
2013-01-13 15:33:00,6.0,0.0,30.54,SSW,207,2.0,-999.0,77,-99.99,,,-99.99,,2013-01-13 22:33:00,
2013-01-13 15:42:00,6.0,0.0,30.54,SSW,207,2.0,-999.0,77,-99.99,,,-99.99,,2013-01-13 22:42:00,
2013-01-13 15:52:00,6.0,0.0,30.54,SSW,207,1.0,-999.0,77,-99.99,,,-99.99,,2013-01-13 22:52:00,
2013-01-13 16:02:00,6.0,0.0,30.55,SSW,207,1.0,-999.0,77,-99.99,,,-99.99,,2013-01-13 23:02:00,
2013-01-13 16:12:00,6.0,0.0,30.55,SSW,207,1.0,-999.0,77,-99.99,,,-99.99,,2013-01-13 23:12:00,
2013-01-13 16:22:00,6.0,1.0,30.55,SSW,207,0.0,-999.0,78,-99.99,,,-99.99,,2013-01-13 23:22:00,
2013-01-13 16:33:00,6.0,1.0,30.55,SSW,207,0.0,-999.0,78,-99.99,,,-99.99,,2013-01-13 23:33:00,
2013-01-13 16:42:00,6.0,1.0,30.55,SSW,207,0.0,-999.0,78,-99.99,,,-99.99,,2013-01-13 23:42:00,
2013-01-13 16:52:00,6.0,1.0,30.55,SSW,207,0.0,-999.0,78,-99.99,,,-99.99,,2013-01-13 23:52:00,
2013-01-13 17:02:00,6.0,1.0,30.55,SSW,207,0.0,-999.0,78,-99.99,,,-99.99,,2013-01-14 00:02:00,
2013-01-13 17:12:00,6.0,1.0,30.55,SSW,207,0.0,-999.0,78,-99.99,,,-99.99,,2013-01-14 00:12:00,
2013-01-13 17:22:00,6.0,1.0,30.55,SSW,207,0.0,-999.0,78,-99.99,,,-99.99,,2013-01-14 00:22:00,
2013-01-13 17:32:00,5.0,0.0,30.55,SSW,207,0.0,-999.0,78,-99.99,,,-99.99,,2013-01-14 00:32:00,
2013-01-13 17:42:00,5.0,0.0,30.55,SSW,207,0.0,-999.0,78,-99.99,,,-99.99,,2013-01-14 00:42:00,
2013-01-13 17:52:00,4.0,-1.0,30.55,SSW,207,0.0,-999.0,79,-99.99,,,-99.99,,2013-01-14 00:52:00,
2013-01-13 18:02:00,4.0,-1.0,30.55,SSW,207,0.0,-999.0,80,-99.99,,,-99.99,,2013-01-14 01:02:00,
2013-01-13 18:12:00,4.0,-1.0,30.55,SSW,207,0.0,-999.0,80,-99.99,,,-99.99,,2013-01-14 01:12:00,
2013-01-13 18:22:00,4.0,-1.0,30.55,SSW,207,0.0,-999.0,79,-99.99,,,-99.99,,2013-01-14 01:22:00,
2013-01-13 18:32:00,4.0,-1.0,30.55,SSW,207,0.0,-999.0,79,-99.99,,,-99.99,,2013-01-14 01:32:00,
2013-01-13 18:42:00,4.0,-1.0,30.55,SSW,207,0.0,-999.0,79,-99.99,,,-99.99,,2013-01-14 01:42:00,
2013-01-13 18:52:00,4.0,-1.0,30.55,SSW,207,0.0,-999.0,80,-99.99,,,-99.99,,2013-01-14 01:52:00,
2013-01-13 19:02:00,3.0,-2.0,30.55,SSW,205,0.0,-999.0,79,-99.99,,,-99.99,,2013-01-14 02:02:00,
2013-01-13 19:12:00,3.0,-2.0,30.55,SSW,205,0.0,-999.0,79,-99.99,,,-99.99,,2013-01-14 02:12:00,
2013-01-13 19:22:00,2.0,-2.0,30.55,SSW,205,0.0,-999.0,81,-99.99,,,-99.99,,2013-01-14 02:22:00,
2013-01-13 19:32:00,-1.0,-6.0,30.55,South,171,1.0,-999.0,79,-99.99,,,-99.99,,2013-01-14 02:32:00,
2013-01-13 19:42:00,-1.0,-6.0,30.55,South,171,1.0,-999.0,79,-99.99,,,-99.99,,2013-01-14 02:42:00,
2013-01-13 19:52:00,-2.0,-7.0,30.56,NE,40,1.0,-999.0,79,-99.99,,,-99.99,,2013-01-14 02:52:00,
2013-01-13 20:02:00,-7.0,-12.0,30.56,NNE,31,2.0,-999.0,78,-99.99,,,-99.99,,2013-01-14 03:02:00,
2013-01-13 20:12:00,-7.0,-12.0,30.56,NNE,31,2.0,-999.0,78,-99.99,,,-99.99,,2013-01-14 03:12:00,
2013-01-13 20:22:00,-7.0,-12.0,30.56,NNE,31,2.0,-999.0,78,-99.99,,,-99.99,,2013-01-14 03:22:00,
2013-01-13 20:32:00,-9.0,-13.0,30.58,NNE,31,2.0,-999.0,80,-99.99,,,-99.99,,2013-01-14 03:32:00,
2013-01-13 20:43:00,-9.0,-13.0,30.58,NNE,31,2.0,-999.0,80,-99.99,,,-99.99,,2013-01-14 03:43:00,
2013-01-13 20:53:00,-8.0,-12.0,30.57,NNE,31,0.0,-999.0,82,-99.99,,,-99.99,,2013-01-14 03:53:00,
2013-01-13 21:02:00,-7.0,-11.0,30.57,NNE,31,0.0,-999.0,82,-99.99,,,-99.99,,2013-01-14 04:02:00,
2013-01-13 21:12:00,-7.0,-11.0,30.57,NNE,31,0.0,-999.0,82,-99.99,,,-99.99,,2013-01-14 04:12:00,
2013-01-13 21:22:00,-6.0,-10.0,30.57,NNE,31,0.0,-999.0,81,-99.99,,,-99.99,,2013-01-14 04:22:00,
2013-01-13 21:32:00,-6.0,-10.0,30.57,NNE,31,0.0,-999.0,81,-99.99,,,-99.99,,2013-01-14 04:32:00,
2013-01-13 21:42:00,-6.0,-10.0,30.57,NNE,31,0.0,-999.0,81,-99.99,,,-99.99,,2013-01-14 04:42:00,
2013-01-13 21:52:00,-6.0,-10.0,30.57,NNE,31,0.0,-999.0,81,-99.99,,,-99.99,,2013-01-14 04:52:00,
2013-01-13 22:03:00,-5.0,-9.0,30.57,NNE,31,0.0,-999.0,81,-99.99,,,-99.99,,2013-01-14 05:03:00,
2013-01-13 22:12:00,-5.0,-9.0,30.57,NNE,31,0.0,-999.0,81,-99.99,,,-99.99,,2013-01-14 05:12:00,
2013-01-13 22:22:00,-5.0,-9.0,30.57,NNE,31,0.0,-999.0,82,-99.99,,,-99.99,,2013-01-14 05:22:00,
2013-01-13 22:32:00,-5.0,-9.0,30.57,NNE,31,0.0,-999.0,82,-99.99,,,-99.99,,2013-01-14 05:32:00,
2013-01-13 22:42:00,-5.0,-9.0,30.57,NNE,31,0.0,-999.0,82,-99.99,,,-99.99,,2013-01-14 05:42:00,
2013-01-13 22:52:00,-5.0,-9.0,30.57,NNE,31,0.0,-999.0,82,-99.99,,,-99.99,,2013-01-14 05:52:00,
2013-01-13 23:02:00,-7.0,-11.0,30.58,NNE,31,0.0,-999.0,81,-99.99,,,-99.99,,2013-01-14 06:02:00,
2013-01-13 23:12:00,-7.0,-11.0,30.58,NNE,31,0.0,-999.0,81,-99.99,,,-99.99,,2013-01-14 06:12:00,
2013-01-13 23:22:00,-6.0,-10.0,30.58,NNE,15,1.0,-999.0,82,-99.99,,,-99.99,,2013-01-14 06:22:00,
2013-01-13 23:32:00,-7.0,-11.0,30.59,NNE,15,0.0,-999.0,81,-99.99,,,-99.99,,2013-01-14 06:32:00,
2013-01-13 23:42:00,-7.0,-11.0,30.59,NNE,15,0.0,-999.0,81,-99.99,,,-99.99,,2013-01-14 06:42:00,
2013-01-13 23:52:00,-7.0,-11.0,30.59,NNE,15,0.0,-999.0,81,-99.99,,,-99.99,,2013-01-14 06:52:00,